Terminal Aerodrome Forecast
Issued by NWS Medford, OR

Home | Current Version | Previous Version | Text Only | Print | Product List | Glossary On
Versions: 1 2 3 4 5 6 7 8 9 10 11 12 13 14 15 16 17 18 19
000
FTUS46 KMFR 081148
TAFMFR
TAF
KMFR 081148Z 0812/0912 VRB04KT P6SM -RA OVC050
     FM081500 VRB04KT 4SM -RA BR BKN025 OVC050
     FM082100 15005KT P6SM VCSH SCT025 OVC050
     FM090300 03003KT P6SM -RA BKN025 OVC050
     FM090900 VRB02KT 2SM BR BKN005 OVC012=

USA.gov is the U.S. government's official web portal to all federal, state and local government web resources and services.